Time;durP1;ratioP1;P1;durP2;ratioP2;P2;SDS_P1;SDS_P2;PMS_P1;PMS_P2;Temp;Humidity;BMP_temperature;BMP_pressure;BME280_temperature;BME280_humidity;BME280_pressure;Samples;Min_cycle;Max_cycle;Signal;HPM_P1;HPM_P2
2022/04/04 00:02:11;;;;;;;7.53;4.32;;;;;;;8.53;100.00;101748.81;5016488;28;20046;-48
2022/04/04 00:04:37;;;;;;;8.33;4.97;;;;;;;8.63;100.00;101751.38;5016274;28;20034;-48
2022/04/04 00:07:02;;;;;;;7.93;4.63;;;;;;;8.51;100.00;101750.81;5016432;28;20057;-50
2022/04/04 00:09:29;;;;;;;7.55;4.20;;;;;;;8.44;100.00;101742.59;5016736;28;20038;-49
2022/04/04 00:11:55;;;;;;;9.75;4.78;;;;;;;8.36;100.00;101736.38;5027784;28;20101;-50
2022/04/04 00:14:21;;;;;;;12.13;5.57;;;;;;;8.16;100.00;101732.13;5036126;28;20034;-47
2022/04/04 00:16:47;;;;;;;7.82;4.65;;;;;;;8.16;100.00;101736.59;5033685;28;20351;-51
2022/04/04 00:19:14;;;;;;;13.18;5.13;;;;;;;8.14;100.00;101720.78;5016520;28;20038;-49
2022/04/04 00:21:41;;;;;;;17.20;6.13;;;;;;;8.02;100.00;101716.69;5016414;28;20042;-47
2022/04/04 00:24:08;;;;;;;;;;;;;;;8.13;100.00;101711.13;5016840;28;20038;-49
2022/04/04 00:26:34;;;;;;;14.32;6.57;;;;;;;8.27;100.00;101704.34;5016181;28;19914;-48
2022/04/04 00:29:00;;;;;;;;;;;;;;;7.73;100.00;101704.53;5016480;28;20030;-47
2022/04/04 00:31:26;;;;;;;11.80;5.53;;;;;;;7.73;100.00;101689.41;5016118;28;19924;-47
2022/04/04 00:33:52;;;;;;;11.18;5.13;;;;;;;8.01;100.00;101697.22;5015670;28;20030;-48
2022/04/04 00:36:17;;;;;;;12.00;5.90;;;;;;;7.90;100.00;101694.81;5016056;28;20054;-48
2022/04/04 00:38:44;;;;;;;11.32;6.32;;;;;;;8.06;100.00;101691.41;5015974;28;20031;-47
2022/04/04 00:41:15;;;;;;;11.27;5.90;;;;;;;8.09;100.00;101683.13;5015878;28;20049;-47
2022/04/04 00:43:42;;;;;;;10.82;6.18;;;;;;;8.04;100.00;101680.06;4995429;28;20134;-47
2022/04/04 00:46:07;;;;;;;9.70;5.70;;;;;;;7.98;100.00;101691.38;5012623;28;20099;-48
2022/04/04 00:48:34;;;;;;;14.05;7.28;;;;;;;8.04;100.00;101674.75;5015499;28;20034;-50
2022/04/04 00:51:00;;;;;;;13.88;6.18;;;;;;;8.02;100.00;101668.75;5015559;28;20073;-45
2022/04/04 00:53:26;;;;;;;16.60;5.82;;;;;;;7.95;100.00;101667.72;5016089;28;20042;-46
2022/04/04 00:55:54;;;;;;;9.02;5.60;;;;;;;7.98;100.00;101660.25;5015440;28;20133;-51
2022/04/04 00:58:21;;;;;;;10.23;5.85;;;;;;;7.91;100.00;101647.72;5015464;28;20110;-49
2022/04/04 01:00:48;;;;;;;10.82;5.75;;;;;;;8.04;100.00;101653.44;5015194;28;20057;-50
2022/04/04 01:03:16;;;;;;;12.32;5.28;;;;;;;8.03;100.00;101654.44;5015296;28;20034;-47
2022/04/04 01:05:44;;;;;;;10.32;5.80;;;;;;;8.31;100.00;101654.25;5015661;28;20058;-47
2022/04/04 01:08:16;;;;;;;11.10;6.05;;;;;;;8.09;100.00;101635.16;5015289;28;20042;-48
2022/04/04 01:10:42;;;;;;;13.13;5.97;;;;;;;7.78;100.00;101640.16;5015411;28;20042;-47
2022/04/04 01:13:09;;;;;;;8.32;4.78;;;;;;;7.87;100.00;101641.84;5015369;28;20054;-46
2022/04/04 01:15:35;;;;;;;9.98;5.10;;;;;;;7.77;100.00;101633.97;5015353;28;20035;-47
2022/04/04 01:18:02;;;;;;;12.35;5.90;;;;;;;7.66;100.00;101634.25;5015057;28;20102;-47
2022/04/04 01:20:28;;;;;;;7.47;4.90;;;;;;;7.69;100.00;101628.63;5015224;28;20042;-50
2022/04/04 01:22:53;;;;;;;8.97;5.13;;;;;;;7.92;100.00;101620.09;5015091;28;20064;-47
2022/04/04 01:25:25;;;;;;;11.02;6.32;;;;;;;7.77;100.00;101606.53;5015014;28;20044;-47
2022/04/04 01:27:50;;;;;;;10.80;5.50;;;;;;;7.92;100.00;101612.09;5014239;28;20054;-45
2022/04/04 01:30:16;;;;;;;10.40;5.20;;;;;;;7.92;100.00;101606.78;5015243;28;20042;-48
2022/04/04 01:32:44;;;;;;;13.35;5.63;;;;;;;7.75;100.00;101601.34;5014759;28;20076;-47
2022/04/04 01:35:10;;;;;;;13.63;5.40;;;;;;;7.78;100.00;101590.38;5014855;28;20034;-49
2022/04/04 01:37:37;;;;;;;12.07;5.28;;;;;;;7.79;100.00;101596.56;5015114;28;20041;-49
2022/04/04 01:40:04;;;;;;;12.48;5.97;;;;;;;7.98;100.00;101583.00;5014740;28;20098;-49
2022/04/04 01:42:31;;;;;;;12.30;6.18;;;;;;;7.92;100.00;101585.47;5014986;28;20030;-47
2022/04/04 01:44:57;;;;;;;13.23;6.03;;;;;;;8.07;98.98;101577.69;5014569;28;20049;-47
2022/04/04 01:47:23;;;;;;;8.03;4.57;;;;;;;7.93;99.64;101579.13;5014494;28;20090;-46
2022/04/04 01:49:48;;;;;;;8.40;5.20;;;;;;;8.13;97.94;101566.38;4997775;28;20272;-48
2022/04/04 01:52:14;;;;;;;11.13;5.90;;;;;;;8.14;97.10;101562.72;5014945;28;20042;-46
2022/04/04 01:54:40;;;;;;;10.52;5.40;;;;;;;8.09;96.44;101554.38;5014660;28;20034;-47
2022/04/04 01:57:05;;;;;;;10.70;6.32;;;;;;;8.04;94.40;101549.53;5014355;28;20038;-49
2022/04/04 01:59:31;;;;;;;13.95;6.88;;;;;;;8.24;93.91;101536.78;5014611;28;20085;-49
2022/04/04 02:01:57;;;;;;;12.40;5.50;;;;;;;8.11;94.27;101537.25;5014127;28;20058;-51
2022/04/04 02:04:23;;;;;;;11.70;5.83;;;;;;;8.29;90.85;101528.28;5014064;28;20034;-47
2022/04/04 02:06:49;;;;;;;12.23;6.30;;;;;;;8.10;91.87;101522.28;5014368;28;20132;-48
2022/04/04 02:09:15;;;;;;;11.63;6.47;;;;;;;8.11;92.99;101513.28;5014630;28;20045;-49
2022/04/04 02:11:42;;;;;;;15.52;6.70;;;;;;;7.98;93.91;101520.88;5014557;28;20053;-47
2022/04/04 02:14:08;;;;;;;10.10;5.90;;;;;;;8.08;93.24;101508.28;5004380;28;20130;-48
2022/04/04 02:16:34;;;;;;;8.80;5.07;;;;;;;8.25;90.41;101505.63;5014176;28;20042;-50
2022/04/04 02:19:00;;;;;;;8.98;5.30;;;;;;;8.13;90.24;101503.28;5014323;28;20093;-47
2022/04/04 02:21:26;;;;;;;11.00;6.20;;;;;;;8.23;90.22;101497.81;5014542;28;20038;-48
2022/04/04 02:23:52;;;;;;;9.80;5.57;;;;;;;8.55;85.98;101490.88;5013845;28;20042;-50
2022/04/04 02:26:18;;;;;;;9.43;5.40;;;;;;;8.05;91.16;101492.59;5014298;28;20049;-49
2022/04/04 02:28:44;;;;;;;14.13;5.57;;;;;;;8.01;92.16;101485.94;5014221;28;20098;-48
2022/04/04 02:31:10;;;;;;;9.70;5.60;;;;;;;8.01;92.65;101469.94;5014066;28;20038;-48
2022/04/04 02:33:35;;;;;;;10.00;5.87;;;;;;;8.09;92.03;101462.00;5014187;28;20064;-46
2022/04/04 02:36:02;;;;;;;12.13;5.43;;;;;;;8.23;89.67;101467.66;5014112;28;20034;-46
2022/04/04 02:38:28;;;;;;;11.18;4.85;;;;;;;7.93;93.20;101459.28;5016463;28;20275;-47
2022/04/04 02:40:56;;;;;;;10.25;5.45;;;;;;;8.49;87.15;101456.03;5017857;28;20045;-47
2022/04/04 02:43:22;;;;;;;9.15;5.43;;;;;;;8.00;90.62;101446.97;5017799;28;20046;-46
2022/04/04 02:45:47;;;;;;;8.95;5.45;;;;;;;8.26;90.33;101440.69;5018035;28;20057;-49
2022/04/04 02:48:15;;;;;;;10.20;5.37;;;;;;;8.31;90.06;101436.53;5017827;28;20034;-47
2022/04/04 02:50:42;;;;;;;10.73;7.40;;;;;;;8.36;87.81;101433.38;5017734;28;20272;-49
2022/04/04 02:53:08;;;;;;;8.90;5.47;;;;;;;8.46;87.86;101430.56;5017851;28;20087;-50
2022/04/04 02:58:18;;;;;;;11.18;5.70;;;;;;;8.46;86.49;101415.38;5017712;28;20282;-47
2022/04/04 03:00:44;;;;;;;11.73;5.77;;;;;;;8.55;87.41;101421.56;5017659;28;20035;-48
2022/04/04 03:03:09;;;;;;;11.50;6.10;;;;;;;8.16;89.52;101407.03;5017236;28;20264;-48
2022/04/04 03:05:36;;;;;;;11.70;5.87;;;;;;;8.44;88.30;101404.03;5017767;28;20106;-47
2022/04/04 03:08:02;;;;;;;11.18;6.45;;;;;;;8.59;86.08;101398.09;5017352;28;20049;-48
2022/04/04 03:10:28;;;;;;;9.52;5.82;;;;;;;8.23;89.67;101396.56;5016240;28;20050;-46
2022/04/04 03:12:54;;;;;;;11.30;6.38;;;;;;;8.10;91.84;101389.06;5017288;28;20046;-48
2022/04/04 03:15:21;;;;;;;12.75;6.30;;;;;;;8.49;88.88;101389.38;5017256;28;20049;-49
2022/04/04 03:17:51;;;;;;;11.85;6.32;;;;;;;8.59;88.32;101382.91;5017373;28;20038;-48
2022/04/04 03:20:18;;;;;;;11.65;6.05;;;;;;;8.82;84.81;101376.03;5017075;28;20045;-49
2022/04/04 03:22:47;;;;;;;10.02;5.57;;;;;;;8.51;87.67;101366.06;5017241;28;20034;-47
2022/04/04 03:25:14;;;;;;;14.07;6.22;;;;;;;8.81;85.87;101369.88;5017547;28;20061;-45
2022/04/04 03:27:42;;;;;;;12.73;5.90;;;;;;;8.57;87.88;101362.75;5017410;28;20046;-49
2022/04/04 03:30:15;;;;;;;10.27;5.93;;;;;;;8.54;87.98;101360.44;5017082;28;20038;-46
2022/04/04 03:32:41;;;;;;;10.18;5.85;;;;;;;8.62;87.13;101344.41;5016953;28;20102;-51
2022/04/04 03:35:07;;;;;;;13.68;6.22;;;;;;;8.72;86.98;101347.72;5016626;28;20069;-47
2022/04/04 03:37:34;;;;;;;13.55;6.45;;;;;;;8.73;87.85;101348.56;5016965;28;20034;-48
2022/04/04 03:40:02;;;;;;;14.38;7.25;;;;;;;8.37;88.71;101343.56;5016742;28;20046;-49
2022/04/04 03:42:28;;;;;;;11.98;6.28;;;;;;;8.87;84.57;101339.84;5016810;28;20064;-49
2022/04/04 03:44:54;;;;;;;14.77;7.78;;;;;;;8.57;86.97;101322.78;5016425;28;20058;-47
2022/04/04 03:47:21;;;;;;;11.27;6.50;;;;;;;8.54;89.56;101321.25;5016510;28;20042;-50
2022/04/04 03:49:47;;;;;;;14.55;6.60;;;;;;;8.99;84.42;101310.94;5016289;28;20030;-48
2022/04/04 03:52:12;;;;;;;11.13;6.97;;;;;;;8.72;86.31;101310.38;5016713;28;20058;-49
2022/04/04 03:54:38;;;;;;;10.95;5.93;;;;;;;8.99;85.63;101307.47;5016857;28;20035;-46
2022/04/04 03:57:04;;;;;;;12.77;6.15;;;;;;;8.80;85.12;101306.84;5000266;28;20038;-50
2022/04/04 03:59:29;;;;;;;12.95;6.50;;;;;;;8.65;87.16;101293.41;5016885;28;20034;-47
2022/04/04 04:01:55;;;;;;;8.83;5.67;;;;;;;8.61;87.94;101284.09;4999203;28;20110;-48
2022/04/04 04:04:20;;;;;;;9.53;6.20;;;;;;;8.58;88.09;101298.59;5016314;28;20053;-46
2022/04/04 04:06:46;;;;;;;12.13;6.32;;;;;;;8.87;87.11;101286.47;5016431;28;20033;-48
2022/04/04 04:09:13;;;;;;;13.05;6.90;;;;;;;8.75;87.91;101279.88;5016315;28;20034;-46
2022/04/04 04:11:39;;;;;;;;;;;;;;;9.12;84.81;101270.38;5016876;28;20053;-48
2022/04/04 04:14:05;;;;;;;12.60;6.17;;;;;;;8.83;86.94;101273.69;5016212;28;19914;-51
2022/04/04 04:16:30;;;;;;;11.57;6.40;;;;;;;8.92;86.75;101261.16;5016283;28;20069;-49
2022/04/04 04:18:56;;;;;;;14.07;5.87;;;;;;;8.73;90.76;101250.72;5016076;28;20050;-47
2022/04/04 04:21:23;;;;;;;12.25;6.78;;;;;;;8.92;87.04;101253.97;5016075;28;20054;-50
2022/04/04 04:23:49;;;;;;;11.40;6.88;;;;;;;8.81;88.66;101249.03;5015990;28;20038;-48
2022/04/04 04:26:15;;;;;;;15.68;6.25;;;;;;;8.94;86.24;101248.47;5016232;28;20058;-48
2022/04/04 04:28:45;;;;;;;16.27;7.17;;;;;;;8.91;88.64;101246.16;5015951;28;20066;-46
2022/04/04 04:31:16;;;;;;;17.83;6.78;;;;;;;8.95;89.56;101250.94;5015881;28;20035;-46
2022/04/04 04:33:43;;;;;;;14.60;7.25;;;;;;;8.91;89.70;101238.97;5015999;28;20110;-47
2022/04/04 04:36:09;;;;;;;18.05;6.20;;;;;;;8.84;89.75;101222.00;5015608;28;20043;-48
2022/04/04 04:38:35;;;;;;;11.90;6.75;;;;;;;8.90;89.56;101213.31;5015678;28;20045;-51
2022/04/04 04:41:02;;;;;;;10.35;6.95;;;;;;;9.15;87.69;101216.66;5015669;28;20048;-49
2022/04/04 04:43:28;;;;;;;14.63;6.63;;;;;;;8.87;89.23;101211.00;5015721;28;20074;-47
2022/04/04 04:45:54;;;;;;;17.38;8.40;;;;;;;9.13;89.11;101208.00;5015532;28;20064;-45
2022/04/04 04:48:20;;;;;;;10.57;6.00;;;;;;;8.89;89.75;101203.63;5015642;28;20069;-50
2022/04/04 04:50:47;;;;;;;13.43;6.07;;;;;;;8.97;90.69;101189.44;5015482;28;20040;-48
2022/04/04 04:53:13;;;;;;;13.10;7.10;;;;;;;8.99;90.85;101187.41;4998818;28;20058;-47
2022/04/04 04:55:39;;;;;;;15.27;6.80;;;;;;;9.12;88.83;101182.34;5015686;28;20106;-47
2022/04/04 04:58:05;;;;;;;14.40;6.70;;;;;;;8.93;90.55;101180.94;5015466;28;20046;-46
2022/04/04 05:00:30;;;;;;;16.43;7.40;;;;;;;8.70;92.65;101187.06;5015120;28;20060;-48
2022/04/04 05:05:42;;;;;;;14.57;7.28;;;;;;;9.27;87.79;101150.38;5015221;28;20053;-48
2022/04/04 05:08:08;;;;;;;11.93;6.88;;;;;;;9.17;89.59;101144.41;5015147;28;20042;-52
2022/04/04 05:10:33;;;;;;;13.88;7.22;;;;;;;9.06;89.13;101151.00;5015043;28;20053;-48
2022/04/04 05:12:58;;;;;;;12.17;6.43;;;;;;;9.32;87.46;101139.97;5014928;28;20049;-49
2022/04/04 05:15:24;;;;;;;10.10;7.30;;;;;;;9.10;89.80;101140.81;5014982;28;20287;-53
2022/04/04 05:17:51;;;;;;;17.20;7.47;;;;;;;9.23;88.07;101141.06;5015047;28;20065;-53
2022/04/04 05:20:16;;;;;;;;;;;;;;;9.24;87.14;101136.53;5015388;28;20038;-48
2022/04/04 05:22:42;;;;;;;16.87;6.70;;;;;;;9.28;85.61;101133.34;5014905;28;19924;-47
2022/04/04 05:25:08;;;;;;;14.23;7.50;;;;;;;9.47;86.15;101123.19;4994547;28;20041;-48
2022/04/04 05:27:33;;;;;;;19.80;8.23;;;;;;;9.60;82.80;101114.53;5002476;28;20091;-47
2022/04/04 05:30:00;;;;;;;18.67;7.45;;;;;;;9.15;88.43;101119.75;5014611;28;20042;-48
2022/04/04 05:32:25;;;;;;;13.93;7.40;;;;;;;9.51;85.02;101116.47;5014785;28;20038;-50
2022/04/04 05:34:51;;;;;;;14.37;7.80;;;;;;;9.29;85.30;101100.31;5014083;28;20045;-51
2022/04/04 05:37:16;;;;;;;14.03;7.23;;;;;;;9.43;86.40;101105.84;5014617;28;20038;-49
2022/04/04 05:39:42;;;;;;;13.60;7.25;;;;;;;9.30;85.86;101096.63;5014637;28;20062;-51
2022/04/04 05:42:07;;;;;;;16.33;7.07;;;;;;;9.53;84.13;101093.06;5014470;28;20042;-50
2022/04/04 05:44:33;;;;;;;15.40;7.47;;;;;;;9.45;86.50;101095.81;5014415;28;20114;-52
2022/04/04 05:46:59;;;;;;;11.90;7.23;;;;;;;9.45;86.08;101098.47;4996076;28;20062;-53
2022/04/04 05:49:24;;;;;;;16.42;7.13;;;;;;;9.42;85.35;101090.84;5014852;28;20034;-49
2022/04/04 05:51:51;;;;;;;13.68;7.38;;;;;;;9.45;87.30;101071.78;5014373;28;20038;-50
2022/04/04 05:54:16;;;;;;;10.88;6.45;;;;;;;9.69;84.05;101059.22;5014303;28;20058;-51
2022/04/04 05:56:44;;;;;;;14.68;7.75;;;;;;;9.41;86.11;101075.81;5014413;28;20099;-49
2022/04/04 05:59:13;;;;;;;19.63;8.23;;;;;;;9.53;86.84;101060.19;4998489;28;20065;-50
2022/04/04 06:01:39;;;;;;;14.70;7.95;;;;;;;9.51;85.64;101055.06;5014033;28;20030;-49
2022/04/04 06:04:05;;;;;;;14.57;7.68;;;;;;;9.43;85.15;101052.44;5013683;28;20122;-48
2022/04/04 06:06:30;;;;;;;14.80;9.80;;;;;;;9.70;84.26;101039.50;5014226;28;20073;-50
2022/04/04 06:08:56;;;;;;;11.45;7.65;;;;;;;9.81;82.29;101033.69;5013906;28;20058;-48
2022/04/04 06:11:22;;;;;;;17.73;7.80;;;;;;;9.58;84.35;101037.28;5014149;28;20088;-50
2022/04/04 06:13:47;;;;;;;12.27;7.40;;;;;;;9.57;84.94;101030.28;5019288;28;20034;-47
2022/04/04 06:16:12;;;;;;;15.10;7.47;;;;;;;9.56;84.12;101011.75;5020310;28;20037;-51
2022/04/04 06:18:37;;;;;;;16.50;6.90;;;;;;;9.81;81.57;101012.31;5020592;28;20413;-50
2022/04/04 06:21:03;;;;;;;15.48;8.10;;;;;;;9.61;81.29;101031.56;5020236;28;20034;-48
2022/04/04 06:23:30;;;;;;;13.03;7.03;;;;;;;9.97;79.18;101018.47;5020459;28;20057;-49
2022/04/04 06:25:55;;;;;;;17.13;7.32;;;;;;;9.68;81.91;101004.13;5020686;28;20030;-49
2022/04/04 06:28:21;;;;;;;15.10;7.90;;;;;;;9.68;81.88;101006.78;5020504;28;20065;-47
2022/04/04 06:30:46;;;;;;;16.07;7.23;;;;;;;9.80;81.51;101020.50;5020066;28;20046;-47
2022/04/04 06:33:12;;;;;;;11.03;6.97;;;;;;;9.84;79.83;101005.78;5020166;28;20763;-47
2022/04/04 06:35:37;;;;;;;19.95;8.25;;;;;;;10.00;77.95;100991.38;5020408;28;20069;-47
2022/04/04 06:38:03;;;;;;;11.70;7.35;;;;;;;10.09;77.47;100984.88;5020316;28;20038;-47
2022/04/04 06:40:30;;;;;;;15.10;6.87;;;;;;;10.31;75.84;100982.25;5020211;28;20114;-47
2022/04/04 06:42:56;;;;;;;13.85;7.75;;;;;;;10.24;75.64;100965.31;5019897;28;20109;-50
2022/04/04 06:45:22;;;;;;;14.45;7.18;;;;;;;10.12;75.28;100989.03;5020063;28;20093;-48
2022/04/04 06:47:48;;;;;;;11.73;6.80;;;;;;;10.42;74.35;100960.41;5020301;28;20065;-47
2022/04/04 06:50:13;;;;;;;10.32;6.30;;;;;;;9.99;75.60;100963.00;5020403;28;20018;-48
2022/04/04 06:52:40;;;;;;;14.52;7.25;;;;;;;10.49;72.33;100956.94;5020026;28;20069;-47
2022/04/04 06:55:06;;;;;;;;;;;;;;;10.25;73.40;100956.28;5020417;28;20397;-48
2022/04/04 06:57:31;;;;;;;11.85;6.70;;;;;;;10.49;71.79;100960.44;5019995;28;19922;-48
2022/04/04 06:59:57;;;;;;;11.93;6.60;;;;;;;10.50;70.79;100971.97;5019806;28;20068;-49
2022/04/04 07:02:23;;;;;;;13.33;6.43;;;;;;;10.36;72.56;100955.75;5019940;28;20042;-46
2022/04/04 07:04:49;;;;;;;16.35;7.55;;;;;;;10.47;73.29;100941.94;5017463;28;20101;-49
2022/04/04 07:07:17;;;;;;;13.48;6.32;;;;;;;10.84;71.07;100954.34;5020021;28;20043;-47
2022/04/04 07:09:45;;;;;;;13.23;6.55;;;;;;;11.44;68.67;100943.19;5020253;28;20065;-52
2022/04/04 07:12:10;;;;;;;12.20;6.20;;;;;;;10.46;73.51;100953.63;5018185;28;20073;-49
2022/04/04 07:14:35;;;;;;;14.20;6.63;;;;;;;10.60;76.00;100937.69;5019614;28;20049;-49
2022/04/04 07:17:02;;;;;;;11.47;6.50;;;;;;;10.82;77.00;100926.97;5019492;28;20034;-47
2022/04/04 07:19:33;;;;;;;21.85;7.85;;;;;;;10.99;76.57;100940.88;5019377;28;20034;-52
2022/04/04 07:21:59;;;;;;;17.75;7.55;;;;;;;10.80;81.97;100937.03;5019532;28;20034;-51
2022/04/04 07:24:24;;;;;;;10.70;5.38;;;;;;;10.47;85.48;100925.88;5017906;28;20042;-47
2022/04/04 07:26:50;;;;;;;17.67;8.33;;;;;;;10.35;91.06;100916.69;5016476;28;20049;-49
2022/04/04 07:29:15;;;;;;;15.73;8.07;;;;;;;10.82;89.67;100919.78;5016561;28;20026;-51
2022/04/04 07:31:42;;;;;;;15.67;8.00;;;;;;;10.90;90.73;100921.47;5016960;28;20161;-50
2022/04/04 07:34:10;;;;;;;13.82;7.47;;;;;;;10.83;87.52;100917.91;5016011;28;20276;-49
2022/04/04 07:36:37;;;;;;;13.20;7.75;;;;;;;10.75;92.46;100914.38;5016467;28;20069;-50
2022/04/04 07:39:06;;;;;;;17.23;7.38;;;;;;;10.44;96.09;100901.38;5016457;28;20038;-50
2022/04/04 07:41:32;;;;;;;16.70;8.52;;;;;;;10.83;97.98;100894.66;5016722;28;20042;-48
2022/04/04 07:43:58;;;;;;;15.38;8.50;;;;;;;10.59;97.57;100896.75;5016247;28;20053;-50
2022/04/04 07:46:24;;;;;;;18.03;9.27;;;;;;;10.61;99.48;100870.66;5016577;28;20034;-47
2022/04/04 07:48:50;;;;;;;15.33;9.17;;;;;;;10.58;98.40;100875.56;5016046;28;20286;-49
2022/04/04 07:51:16;;;;;;;17.17;9.02;;;;;;;10.86;94.40;100870.19;5015977;28;20027;-49
2022/04/04 07:53:42;;;;;;;18.20;8.27;;;;;;;10.88;93.20;100867.34;5016197;28;20052;-48
2022/04/04 07:56:07;;;;;;;16.23;8.73;;;;;;;11.11;91.40;100866.22;5016119;28;20035;-49
2022/04/04 07:58:32;;;;;;;15.80;8.70;;;;;;;11.09;91.57;100863.75;4995438;28;20058;-49
2022/04/04 08:00:58;;;;;;;15.57;9.00;;;;;;;10.78;93.47;100862.34;5013802;28;20042;-51
2022/04/04 08:03:23;;;;;;;12.97;7.33;;;;;;;11.14;92.18;100852.44;5015888;28;20061;-49
2022/04/04 08:05:49;;;;;;;16.38;8.77;;;;;;;11.17;91.05;100849.38;5015524;28;20042;-47
2022/04/04 08:08:15;;;;;;;12.73;7.28;;;;;;;11.10;90.43;100857.34;5016051;28;20135;-47
2022/04/04 08:10:41;;;;;;;16.02;7.28;;;;;;;11.05;89.45;100849.91;5015783;28;20073;-48
2022/04/04 08:13:07;;;;;;;15.15;8.23;;;;;;;11.20;89.23;100830.22;5015702;28;20034;-48
2022/04/04 08:15:33;;;;;;;15.38;8.38;;;;;;;11.26;87.22;100829.41;5015866;28;20041;-51
2022/04/04 08:17:59;;;;;;;13.67;7.30;;;;;;;11.50;83.07;100845.16;5015884;28;20073;-46
2022/04/04 08:20:26;;;;;;;15.73;7.22;;;;;;;11.62;83.78;100841.69;5015456;28;20275;-52
2022/04/04 08:22:51;;;;;;;12.48;7.65;;;;;;;10.88;88.06;100821.84;5015400;28;20109;-51
2022/04/04 08:25:17;;;;;;;16.92;7.22;;;;;;;11.53;85.28;100828.69;5015638;28;20061;-50
2022/04/04 08:27:44;;;;;;;17.83;7.60;;;;;;;11.93;81.75;100825.25;5015766;28;20034;-47
2022/04/04 08:30:12;;;;;;;15.50;8.60;;;;;;;11.33;88.12;100824.94;5015498;28;20092;-49
2022/04/04 08:32:38;;;;;;;16.45;7.80;;;;;;;11.87;81.68;100814.34;5015803;28;20034;-52
2022/04/04 08:35:06;;;;;;;15.43;8.20;;;;;;;11.83;81.61;100799.69;5015000;28;20047;-48
2022/04/04 08:37:33;;;;;;;18.92;8.52;;;;;;;11.48;84.61;100808.69;5015564;28;20038;-48
2022/04/04 08:39:59;;;;;;;19.55;7.57;;;;;;;11.64;85.07;100821.91;5015383;28;20038;-48
2022/04/04 08:42:27;;;;;;;15.32;7.60;;;;;;;11.46;85.96;100839.38;5015624;28;20098;-49
2022/04/04 08:44:57;;;;;;;18.48;8.80;;;;;;;11.05;91.34;100815.13;5014975;28;20421;-50
2022/04/04 08:47:23;;;;;;;17.25;8.63;;;;;;;11.38;90.53;100788.69;4998335;28;20031;-50
2022/04/04 08:49:52;;;;;;;;;;;;;;;11.66;88.46;100798.44;5015463;28;20061;-51
2022/04/04 08:52:19;;;;;;;14.60;8.00;;;;;;;11.57;90.50;100792.44;5015445;28;19941;-49
2022/04/04 08:54:45;;;;;;;14.90;7.40;;;;;;;11.25;95.68;100784.94;5015538;28;20102;-48
2022/04/04 08:57:11;;;;;;;19.77;9.65;;;;;;;11.80;100.00;100796.59;5014816;28;20042;-48
2022/04/04 08:59:38;;;;;;;16.63;9.45;;;;;;;11.87;100.00;100795.56;5015357;28;20077;-48
2022/04/04 09:02:03;;;;;;;16.77;8.75;;;;;;;11.32;100.00;100777.78;5014954;28;20034;-46
2022/04/04 09:04:32;;;;;;;18.30;10.10;;;;;;;11.28;100.00;100779.19;5015142;28;20034;-47
2022/04/04 09:06:57;;;;;;;22.15;10.07;;;;;;;11.38;100.00;100769.94;5014918;28;20095;-51
2022/04/04 09:09:27;;;;;;;18.63;10.17;;;;;;;11.40;100.00;100781.28;5015119;28;20049;-49
2022/04/04 09:12:08;;;;;;;16.02;9.70;;;;;;;10.90;100.00;100772.44;5014840;28;20038;-49
2022/04/04 09:14:37;;;;;;;17.27;10.63;;;;;;;11.08;100.00;100778.31;5014497;28;20102;-51
2022/04/04 09:17:06;;;;;;;26.75;10.93;;;;;;;10.79;100.00;100782.91;5014453;28;20058;-51
2022/04/04 09:19:32;;;;;;;23.65;10.35;;;;;;;10.80;100.00;100766.66;5014906;28;20098;-48
2022/04/04 09:22:19;;;;;;;20.33;11.48;;;;;;;10.65;100.00;100780.16;5014899;28;20042;-46
2022/04/04 09:24:48;;;;;;;24.05;12.00;;;;;;;10.83;100.00;100778.78;5014961;28;20046;-46
2022/04/04 09:27:18;;;;;;;21.50;11.48;;;;;;;10.50;100.00;100752.72;5014308;28;20125;-46
2022/04/04 09:29:45;;;;;;;26.52;13.45;;;;;;;10.81;100.00;100752.25;5014809;28;20042;-49
2022/04/04 09:32:14;;;;;;;21.95;13.15;;;;;;;10.65;100.00;100753.41;5014749;28;20045;-46
2022/04/04 09:35:12;;;;;;;20.95;12.07;;;;;;;10.55;100.00;100752.94;5014551;28;20038;-48
2022/04/04 09:37:39;;;;;;;;;;;;;;;11.05;100.00;100747.41;5001832;28;20066;-49
2022/04/04 09:40:25;;;;;;;24.00;12.60;;;;;;;10.35;100.00;100740.25;5014496;28;19986;-48
2022/04/04 09:42:51;;;;;;;26.38;13.43;;;;;;;10.55;100.00;100763.63;5014354;28;20073;-49
2022/04/04 09:45:19;;;;;;;31.27;12.60;;;;;;;10.32;100.00;100765.53;5014446;28;20039;-50
2022/04/04 09:48:01;;;;;;;20.90;12.75;;;;;;;10.14;100.00;100738.47;5013987;28;20042;-49
2022/04/04 09:50:42;;;;;;;26.05;13.15;;;;;;;10.62;100.00;100737.78;5014563;28;20106;-54
2022/04/04 09:53:13;;;;;;;29.05;15.48;;;;;;;10.36;100.00;100733.88;5014301;28;20068;-48
2022/04/04 09:55:41;;;;;;;24.42;13.05;;;;;;;9.67;100.00;100754.13;5014002;28;20072;-52
2022/04/04 09:58:11;;;;;;;25.42;14.93;;;;;;;10.18;100.00;100743.25;4997339;28;20034;-49
2022/04/04 10:00:39;;;;;;;27.88;12.77;;;;;;;10.05;100.00;100729.78;5014207;28;20042;-48
2022/04/04 10:03:07;;;;;;;25.88;14.82;;;;;;;10.54;100.00;100705.84;5013576;28;20046;-50
2022/04/04 10:05:35;;;;;;;26.88;15.52;;;;;;;10.29;100.00;100722.31;5014030;28;20045;-51
2022/04/04 10:08:01;;;;;;;28.20;14.63;;;;;;;10.85;100.00;100721.41;5013900;28;20037;-51
2022/04/04 10:10:29;;;;;;;28.00;12.80;;;;;;;10.71;100.00;100719.69;5013757;28;20034;-50
2022/04/04 10:12:55;;;;;;;22.05;11.77;;;;;;;10.93;100.00;100716.88;5013589;28;20038;-51
2022/04/04 10:15:21;;;;;;;;;;;;;;;11.11;100.00;100721.69;5014045;28;20066;-50
2022/04/04 10:17:48;;;;;;;19.27;11.20;;;;;;;10.45;100.00;100718.53;5013886;28;19928;-51
2022/04/04 10:20:15;;;;;;;23.67;12.73;;;;;;;10.57;100.00;100713.44;5014396;28;20058;-49
2022/04/04 10:22:40;;;;;;;28.80;14.73;;;;;;;10.95;100.00;100718.34;5013938;28;20042;-53
2022/04/04 10:25:07;;;;;;;25.90;15.27;;;;;;;10.76;100.00;100702.03;5013535;28;20053;-52
2022/04/04 10:27:36;;;;;;;21.88;13.20;;;;;;;10.78;100.00;100683.13;5013944;28;20053;-50
2022/04/04 10:30:05;;;;;;;27.58;13.27;;;;;;;10.90;100.00;100702.09;5013452;28;20034;-52
2022/04/04 10:32:32;;;;;;;24.50;14.38;;;;;;;11.24;100.00;100692.28;5014199;28;20057;-48
2022/04/04 10:35:07;;;;;;;29.45;13.15;;;;;;;10.82;100.00;100683.50;5013451;28;20038;-48
2022/04/04 10:37:42;;;;;;;23.60;13.77;;;;;;;10.75;100.00;100692.34;5013476;28;20065;-48
2022/04/04 10:40:28;;;;;;;30.75;13.77;;;;;;;10.71;100.00;100661.69;5013742;28;20073;-49
2022/04/04 10:43:02;;;;;;;17.77;11.40;;;;;;;9.99;100.00;100714.53;5013045;28;20030;-47
2022/04/04 10:45:30;;;;;;;22.88;12.05;;;;;;;9.94;100.00;100682.25;5013888;28;20034;-52
2022/04/04 10:48:04;;;;;;;23.60;13.15;;;;;;;10.38;100.00;100667.69;5013546;28;20038;-47
2022/04/04 10:50:32;;;;;;;37.10;12.07;;;;;;;11.36;100.00;100672.94;5013980;28;20042;-49
2022/04/04 10:53:00;;;;;;;19.52;10.40;;;;;;;11.62;100.00;100664.06;5013524;28;20038;-48
2022/04/04 10:55:37;;;;;;;16.40;9.05;;;;;;;11.47;100.00;100658.94;5013670;28;20042;-46
2022/04/04 10:58:15;;;;;;;17.38;10.77;;;;;;;12.06;100.00;100656.44;5013587;28;20153;-48
2022/04/04 11:01:04;;;;;;;20.17;11.48;;;;;;;11.87;100.00;100648.19;5015870;28;20073;-49
2022/04/04 11:03:34;;;;;;;16.48;10.02;;;;;;;11.45;100.00;100669.03;5002187;28;20038;-50
2022/04/04 11:09:05;;;;;;;20.95;11.68;;;;;;;11.70;100.00;100652.31;5017266;28;20038;-49
2022/04/04 11:11:48;;;;;;;17.00;8.38;;;;;;;11.41;100.00;100624.94;5002572;28;20042;-52
2022/04/04 11:14:15;;;;;;;17.70;9.15;;;;;;;11.58;100.00;100623.50;5016079;28;20041;-51
2022/04/04 11:17:05;;;;;;;16.70;10.32;;;;;;;12.02;100.00;100626.53;5016348;28;20038;-52
2022/04/04 11:19:46;;;;;;;21.17;12.02;;;;;;;12.07;100.00;100620.56;5002370;28;20038;-52
2022/04/04 11:22:21;;;;;;;16.75;8.32;;;;;;;11.38;100.00;100625.38;5016855;28;20038;-50
2022/04/04 11:25:06;;;;;;;18.65;9.70;;;;;;;11.54;100.00;100640.19;5016546;28;20044;-53
2022/04/04 11:27:34;;;;;;;22.58;10.98;;;;;;;12.15;100.00;100616.81;5001950;28;20195;-51
2022/04/04 11:30:10;;;;;;;19.58;10.65;;;;;;;11.76;100.00;100611.31;5017029;28;20101;-53